Time;durP1;ratioP1;P1;durP2;ratioP2;P2;SDS_P1;SDS_P2;PMS_P1;PMS_P2;Temp;Humidity;BMP_temperature;BMP_pressure;BME280_temperature;BME280_humidity;BME280_pressure;Samples;Min_cycle;Max_cycle;Signal;HPM_P1;HPM_P2
2021/12/10 00:01:16;;;;;;;1.50;1.30;;;1.30;99.90;;;;;;5018132;28;20433;-88
2021/12/10 00:03:47;;;;;;;11.47;2.90;;;1.30;99.90;;;;;;5011755;28;20555;-88
2021/12/10 00:06:18;;;;;;;1.17;0.97;;;1.30;99.90;;;;;;5016512;28;20499;-89
2021/12/10 00:08:47;;;;;;;7.53;1.67;;;1.20;99.90;;;;;;5013837;28;20457;-89
2021/12/10 00:11:20;;;;;;;4.00;1.20;;;1.20;99.90;;;;;;5017062;28;20456;-89
2021/12/10 00:13:47;;;;;;;6.73;1.40;;;;;;;;;;5013003;28;20457;-89
2021/12/10 00:16:18;;;;;;;4.70;1.10;;;1.20;99.90;;;;;;5017524;28;20491;-91
2021/12/10 00:18:51;;;;;;;6.13;0.87;;;;;;;;;;5014757;28;20444;-88
2021/12/10 00:21:18;;;;;;;3.90;1.40;;;;;;;;;;5013327;28;21003;-88
2021/12/10 00:23:49;;;;;;;14.13;1.10;;;;;;;;;;5017389;28;20500;-90
2021/12/10 00:26:18;;;;;;;6.43;2.10;;;1.00;99.90;;;;;;5016204;28;20515;-90
2021/12/10 00:28:45;;;;;;;2.00;1.17;;;;;;;;;;5014382;28;20201;-90
2021/12/10 00:31:20;;;;;;;2.50;1.20;;;1.00;99.90;;;;;;5013112;28;20486;-89
2021/12/10 00:33:59;;;;;;;0.93;0.70;;;1.00;99.90;;;;;;5017140;28;20534;-89
2021/12/10 00:36:27;;;;;;;3.53;1.80;;;0.90;99.90;;;;;;5013008;28;20460;-90
2021/12/10 00:38:55;;;;;;;3.20;1.90;;;;;;;;;;5012035;28;20467;-90
2021/12/10 00:41:24;;;;;;;3.90;1.83;;;1.00;99.90;;;;;;5016529;28;20449;-89
2021/12/10 00:43:51;;;;;;;4.53;1.40;;;;;;;;;;5013919;28;20488;-91
2021/12/10 00:46:20;;;;;;;9.10;2.10;;;0.90;99.90;;;;;;5016968;28;20473;-91
2021/12/10 00:48:48;;;;;;;3.20;1.23;;;;;;;;;;5016938;28;20453;-89
2021/12/10 00:51:15;;;;;;;6.03;1.33;;;0.80;99.90;;;;;;5015951;28;20456;-90
2021/12/10 00:53:44;;;;;;;3.90;2.00;;;0.80;99.90;;;;;;5017042;28;20956;-92
2021/12/10 00:56:11;;;;;;;3.73;2.20;;;;;;;;;;5017000;28;20925;-91
2021/12/10 00:58:40;;;;;;;6.57;2.43;;;0.70;99.90;;;;;;5016311;28;20797;-92
2021/12/10 01:01:11;;;;;;;3.27;1.77;;;0.70;99.90;;;;;;5017154;28;20460;-93
2021/12/10 01:03:43;;;;;;;4.90;1.30;;;0.60;99.90;;;;;;5016590;28;20488;-91
2021/12/10 01:06:13;;;;;;;5.70;1.73;;;0.60;99.90;;;;;;5013376;28;20476;-92
2021/12/10 01:08:43;;;;;;;42.30;18.30;;;0.60;99.90;;;;;;5028849;28;20437;-89
2021/12/10 01:11:13;;;;;;;76.37;33.67;;;0.60;99.90;;;;;;5038885;28;20436;-92
2021/12/10 01:13:45;;;;;;;84.53;35.60;;;0.40;99.90;;;;;;5012715;28;20476;-90
2021/12/10 01:23:43;;;;;;;15.63;6.50;;;0.50;99.90;;;;;;5016645;28;20540;-91
2021/12/10 01:24:54;;;;;;;306.00;139.10;;;0.20;99.90;;;;;;5015976;28;20492;-92
2021/12/10 01:27:30;;;;;;;17.67;9.00;;;0.20;99.90;;;;;;5016634;28;20487;-92
2021/12/10 01:30:00;;;;;;;40.77;20.30;;;0.30;99.90;;;;;;5016678;28;20448;-92
2021/12/10 01:32:30;;;;;;;7.87;3.80;;;0.00;99.90;;;;;;5015597;28;20943;-90
2021/12/10 01:34:58;;;;;;;6.60;2.50;;;-0.10;99.90;;;;;;5015323;28;20460;-89
2021/12/10 01:37:25;;;;;;;3.87;1.93;;;-0.20;99.90;;;;;;5013399;28;20460;-90
2021/12/10 01:39:54;;;;;;;21.43;9.00;;;-0.20;99.90;;;;;;5016335;28;20429;-91
2021/12/10 01:42:34;;;;;;;6.33;1.60;;;;;;;;;;5016080;28;20460;-91
2021/12/10 01:45:05;;;;;;;6.00;2.43;;;-0.30;99.90;;;;;;5016065;28;20557;-92
2021/12/10 01:47:35;;;;;;;2.40;1.93;;;-0.30;99.90;;;;;;5016226;28;20487;-92
2021/12/10 01:50:05;;;;;;;2.90;1.93;;;-0.30;99.90;;;;;;5015373;28;20461;-92
2021/12/10 01:52:32;;;;;;;10.53;4.07;;;;;;;;;;5016102;28;20452;-91
2021/12/10 01:55:02;;;;;;;4.97;2.03;;;-0.40;99.90;;;;;;5015790;28;20472;-91
2021/12/10 01:57:32;;;;;;;1.90;1.70;;;-0.40;99.90;;;;;;5015797;28;20437;-93
2021/12/10 01:59:59;;;;;;;5.73;2.23;;;-0.60;99.90;;;;;;5012526;28;20936;-89
2021/12/10 02:02:30;;;;;;;6.20;1.70;;;-0.40;99.90;;;;;;5015562;28;20457;-89
2021/12/10 02:04:58;;;;;;;2.40;1.70;;;;;;;;;;5011497;28;20543;-93
2021/12/10 02:07:28;;;;;;;12.87;8.33;;;-0.50;99.90;;;;;;5012424;28;20449;-91
2021/12/10 02:09:55;;;;;;;7.27;3.70;;;;;;;;;;5014878;28;20444;-92
2021/12/10 02:12:22;;;;;;;4.00;2.97;;;;;;;;;;5015257;28;20444;-88
2021/12/10 02:15:00;;;;;;;8.70;2.20;;;-0.40;99.90;;;;;;5015351;28;20445;-89
2021/12/10 02:17:29;;;;;;;4.27;1.73;;;-0.40;99.90;;;;;;5015648;28;20449;-91
2021/12/10 02:19:56;;;;;;;4.07;1.90;;;;;;;;;;5014783;28;20471;-91
2021/12/10 02:22:25;;;;;;;4.60;2.97;;;-0.50;99.90;;;;;;5015651;28;20441;-92
2021/12/10 02:24:52;;;;;;;4.13;1.80;;;;;;;;;;5012528;28;20496;-95
2021/12/10 02:27:19;;;;;;;3.77;1.70;;;;;;;;;;5015535;28;20445;-93
2021/12/10 02:29:47;;;;;;;3.20;1.87;;;;;;;;;;5015557;28;20445;-91
2021/12/10 02:32:14;;;;;;;5.57;1.73;;;;;;;;;;5015650;28;20448;-92
2021/12/10 02:34:43;;;;;;;4.33;2.03;;;;;;;;;;5014729;28;20464;-92
2021/12/10 02:37:10;;;;;;;6.50;2.23;;;;;;;;;;5010286;28;20453;-92
2021/12/10 02:39:38;;;;;;;5.43;1.80;;;-0.60;99.90;;;;;;5011576;28;20449;-91
2021/12/10 02:42:06;;;;;;;3.47;1.70;;;;;;;;;;5015493;28;20799;-93
2021/12/10 02:44:33;;;;;;;3.97;1.40;;;-0.40;99.90;;;;;;5012351;28;20496;-92
2021/12/10 02:47:01;;;;;;;2.30;1.60;;;-0.60;99.90;;;;;;5015070;28;20444;-90
2021/12/10 02:49:29;;;;;;;5.37;1.50;;;-0.70;99.90;;;;;;5015211;28;20448;-93
2021/12/10 02:51:56;;;;;;;13.23;1.57;;;;;;;;;;5014664;28;20453;-92
2021/12/10 02:54:33;;;;;;;7.40;2.20;;;-0.60;99.90;;;;;;5015424;28;20799;-93
2021/12/10 02:57:03;;;;;;;3.90;1.63;;;-0.60;99.90;;;;;;5011021;28;20461;-94
2021/12/10 02:59:30;;;;;;;3.73;1.77;;;;;;;;;;5015370;28;20459;-93
2021/12/10 03:01:59;;;;;;;5.77;1.53;;;;;;;;;;5015685;28;20468;-91
2021/12/10 03:04:27;;;;;;;6.30;1.90;;;;;;;;;;5015158;28;20921;-93
2021/12/10 03:06:57;;;;;;;2.60;1.77;;;-0.50;99.90;;;;;;5014195;28;20457;-93
2021/12/10 03:09:26;;;;;;;5.03;1.70;;;-0.40;99.90;;;;;;5014833;28;20825;-93
2021/12/10 03:11:56;;;;;;;5.27;1.80;;;-0.40;99.90;;;;;;5014834;28;20453;-93
2021/12/10 03:14:29;;;;;;;8.53;2.60;;;-0.40;99.90;;;;;;5014942;28;20892;-93
2021/12/10 03:17:00;;;;;;;6.63;1.83;;;-0.50;99.90;;;;;;5010929;28;20437;-90
2021/12/10 03:19:27;;;;;;;2.23;1.80;;;;;;;;;;5015099;28;20444;-93
2021/12/10 03:21:55;;;;;;;3.83;1.70;;;;;;;;;;5013522;28;20487;-91
2021/12/10 03:24:24;;;;;;;3.90;2.30;;;-0.40;99.90;;;;;;5014650;28;20495;-91
2021/12/10 03:26:52;;;;;;;3.40;1.63;;;;;;;;;;5007425;28;20784;-95
2021/12/10 03:29:20;;;;;;;3.33;1.90;;;-0.40;99.90;;;;;;5014850;28;20806;-94
2021/12/10 03:31:49;;;;;;;6.60;2.47;;;-0.40;99.90;;;;;;5014774;28;20452;-91
2021/12/10 03:34:16;;;;;;;2.23;1.63;;;;;;;;;;5009859;28;20461;-90
2021/12/10 03:36:46;;;;;;;5.90;1.90;;;;;;;;;;5013284;28;20452;-91
2021/12/10 03:39:14;;;;;;;5.50;2.60;;;-0.40;99.90;;;;;;5014596;28;20445;-92
2021/12/10 03:41:42;;;;;;;7.30;2.53;;;;;;;;;;5014588;28;20457;-90
2021/12/10 03:44:09;;;;;;;7.30;2.67;;;;;;;;;;5010640;28;20475;-95
2021/12/10 03:46:37;;;;;;;4.70;3.03;;;;;;;;;;5019555;28;20468;-88
2021/12/10 03:49:06;;;;;;;3.50;2.33;;;-0.50;99.90;;;;;;5031190;28;20526;-87
2021/12/10 03:51:35;;;;;;;5.23;2.60;;;-0.40;99.90;;;;;;5006675;28;20441;-88
2021/12/10 03:54:02;;;;;;;5.20;2.50;;;;;;;;;;5014402;28;20966;-89
2021/12/10 03:56:31;;;;;;;7.03;3.23;;;-0.30;99.90;;;;;;5013795;28;20448;-90
2021/12/10 03:59:00;;;;;;;7.00;3.10;;;-0.30;99.90;;;;;;5014063;28;20449;-91
2021/12/10 04:01:29;;;;;;;3.20;2.53;;;-0.30;99.90;;;;;;5011209;28;20465;-91
2021/12/10 04:03:58;;;;;;;4.77;3.20;;;-0.30;99.90;;;;;;5013761;28;20488;-89
2021/12/10 04:06:27;;;;;;;5.07;2.67;;;-0.40;99.90;;;;;;5012901;28;20453;-88
2021/12/10 04:08:54;;;;;;;5.87;2.90;;;;;;;;;;5013703;28;20459;-90
2021/12/10 04:11:23;;;;;;;5.00;2.57;;;-0.50;99.90;;;;;;5013544;28;20952;-91
2021/12/10 04:13:52;;;;;;;6.57;3.33;;;-0.50;99.90;;;;;;5013510;28;20525;-88
2021/12/10 04:16:19;;;;;;;6.17;2.50;;;-0.50;99.90;;;;;;5013599;28;20457;-91
2021/12/10 04:18:47;;;;;;;6.37;3.07;;;-0.60;99.90;;;;;;5013691;28;20448;-90
2021/12/10 04:21:14;;;;;;;4.93;2.70;;;;;;;;;;5009152;28;20485;-90
2021/12/10 04:23:43;;;;;;;7.10;3.70;;;-0.40;99.90;;;;;;5013316;28;20472;-91
2021/12/10 04:26:10;;;;;;;4.30;2.90;;;;;;;;;;5013519;28;20514;-90
2021/12/10 04:28:37;;;;;;;7.27;3.20;;;;;;;;;;5013471;28;20459;-90
2021/12/10 04:31:05;;;;;;;5.50;3.57;;;;;;;;;;5013390;28;20460;-89
2021/12/10 04:33:32;;;;;;;6.47;3.70;;;;;;;;;;5013936;28;20460;-90
2021/12/10 04:36:01;;;;;;;4.90;3.07;;;-0.60;99.90;;;;;;5016012;28;20456;-90
2021/12/10 04:38:32;;;;;;;5.10;3.40;;;-0.60;99.90;;;;;;5014089;28;20471;-89
2021/12/10 04:41:04;;;;;;;5.70;2.70;;;-0.60;99.90;;;;;;5017161;28;20457;-91
2021/12/10 04:43:33;;;;;;;6.53;2.57;;;-0.60;99.90;;;;;;5013989;28;20476;-91
2021/12/10 04:46:00;;;;;;;7.10;2.93;;;-0.60;99.90;;;;;;5013043;28;20500;-89
2021/12/10 04:48:29;;;;;;;4.23;2.83;;;-0.60;99.90;;;;;;5016800;28;20449;-88
2021/12/10 04:50:56;;;;;;;2.80;2.43;;;;;;;;;;5013166;28;20441;-90
2021/12/10 04:53:24;;;;;;;7.00;2.80;;;-0.60;99.90;;;;;;5016609;28;20453;-90
2021/12/10 04:55:51;;;;;;;10.50;3.13;;;;;;;;;;5013675;28;20945;-88
2021/12/10 04:58:20;;;;;;;3.47;2.20;;;-0.80;99.90;;;;;;5016730;28;20459;-91
2021/12/10 05:00:50;;;;;;;6.30;2.73;;;-0.70;99.90;;;;;;5016408;28;20458;-89
2021/12/10 05:03:17;;;;;;;4.60;2.60;;;;;;;;;;5016870;28;20456;-89
2021/12/10 05:05:45;;;;;;;4.23;2.67;;;;;;;;;;5015051;28;20492;-90
2021/12/10 05:08:13;;;;;;;3.63;2.40;;;-0.90;99.90;;;;;;5016387;28;20511;-88
2021/12/10 05:10:40;;;;;;;3.60;2.80;;;;;;;;;;5016306;28;20457;-91
2021/12/10 05:13:08;;;;;;;4.43;2.93;;;-1.00;99.90;;;;;;5013382;28;20511;-89
2021/12/10 05:15:39;;;;;;;5.27;3.30;;;-1.00;99.90;;;;;;5011434;28;20446;-91
2021/12/10 05:18:08;;;;;;;13.03;3.30;;;-0.90;99.90;;;;;;5013333;28;20449;-90
2021/12/10 05:20:38;;;;;;;6.90;3.90;;;-0.90;99.90;;;;;;5014754;28;20477;-87
2021/12/10 05:23:06;;;;;;;6.23;3.10;;;-1.00;99.90;;;;;;5015923;28;21138;-90
2021/12/10 05:25:33;;;;;;;9.17;4.10;;;;;;;;;;5016028;28;20507;-92
2021/12/10 05:28:01;;;;;;;7.20;3.77;;;;;;;;;;5016157;28;20453;-90
2021/12/10 05:30:30;;;;;;;8.93;3.60;;;-0.90;99.90;;;;;;5016240;28;20524;-89
2021/12/10 05:33:00;;;;;;;4.80;2.73;;;-1.00;99.90;;;;;;5016363;28;20457;-92
2021/12/10 05:35:27;;;;;;;204.07;78.63;;;;;;;;;;5014840;28;20453;-91
2021/12/10 05:37:55;;;;;;;157.63;53.90;;;;;;;;;;5015888;28;20457;-90
2021/12/10 05:40:23;;;;;;;17.53;9.00;;;;;;;;;;5012965;28;20893;-91
2021/12/10 05:42:51;;;;;;;14.03;7.13;;;-1.00;99.90;;;;;;5015743;28;20449;-90
2021/12/10 05:45:20;;;;;;;67.33;28.40;;;-1.10;99.90;;;;;;5015488;28;20847;-89
2021/12/10 05:47:48;;;;;;;41.60;17.73;;;-1.30;99.90;;;;;;5013000;28;20547;-90
2021/12/10 05:50:20;;;;;;;11.83;5.83;;;-1.20;99.90;;;;;;5014636;28;20452;-89
2021/12/10 05:52:48;;;;;;;2.47;2.27;;;;;;;;;;5015874;28;20453;-90
2021/12/10 05:55:15;;;;;;;7.23;4.10;;;;;;;;;;5016748;28;20452;-92
2021/12/10 05:57:43;;;;;;;5.97;4.80;;;;;;;;;;5010397;28;20437;-92
2021/12/10 06:00:15;;;;;;;5.87;4.00;;;-1.10;99.90;;;;;;5016624;28;20447;-93
2021/12/10 06:02:42;;;;;;;9.33;5.03;;;;;;;;;;5013837;28;20459;-90
2021/12/10 06:05:10;;;;;;;8.30;4.67;;;-0.90;99.90;;;;;;5015126;28;20495;-91
2021/12/10 06:07:39;;;;;;;8.40;4.87;;;-0.80;99.90;;;;;;5012796;28;20453;-88
2021/12/10 06:10:07;;;;;;;9.07;4.67;;;-0.80;99.90;;;;;;5012094;28;20441;-90
2021/12/10 06:12:35;;;;;;;7.30;4.40;;;;;;;;;;5010243;28;20872;-94
2021/12/10 06:15:02;;;;;;;5.80;4.00;;;;;;;;;;5016026;28;20468;-93
2021/12/10 06:17:29;;;;;;;7.90;4.97;;;;;;;;;;5015835;28;20453;-89
2021/12/10 06:19:56;;;;;;;10.17;3.80;;;;;;;;;;5014805;28;20794;-89
2021/12/10 06:22:23;;;;;;;8.50;4.33;;;;;;;;;;5017970;28;20449;-89
2021/12/10 06:24:51;;;;;;;7.20;3.43;;;-0.80;99.90;;;;;;5032881;28;20441;-88
2021/12/10 06:27:18;;;;;;;14.10;5.70;;;;;;;;;;5029415;28;20456;-88
2021/12/10 06:29:45;;;;;;;9.70;4.43;;;;;;;;;;5019773;28;20952;-89
2021/12/10 06:32:13;;;;;;;13.57;5.87;;;;;;;;;;5018096;28;20462;-88
2021/12/10 06:34:40;;;;;;;6.83;4.80;;;;;;;;;;5016733;28;20464;-87
2021/12/10 06:37:08;;;;;;;6.97;4.20;;;-0.70;99.90;;;;;;5013928;28;20825;-89
2021/12/10 06:39:35;;;;;;;8.40;4.93;;;;;;;;;;5016782;28;20454;-87
2021/12/10 06:42:04;;;;;;;7.07;5.47;;;-0.70;99.90;;;;;;5010489;28;20523;-87
2021/12/10 06:44:32;;;;;;;12.23;6.50;;;;;;;;;;5017670;28;20477;-91
2021/12/10 06:47:08;;;;;;;13.10;6.27;;;-0.60;99.90;;;;;;5016776;28;20499;-91
2021/12/10 06:49:36;;;;;;;9.10;5.20;;;;;;;;;;5014823;28;20959;-89
2021/12/10 06:52:03;;;;;;;7.63;5.67;;;;;;;;;;5014136;28;20456;-88
2021/12/10 06:54:31;;;;;;;8.73;5.37;;;;;;;;;;5010483;28;20449;-91
2021/12/10 06:56:58;;;;;;;9.20;5.40;;;;;;;;;;5013780;28;20448;-89
2021/12/10 06:59:27;;;;;;;11.83;5.47;;;-0.60;99.90;;;;;;5014490;28;20479;-90
2021/12/10 07:01:54;;;;;;;8.47;5.00;;;;;;;;;;5015561;28;20521;-91
2021/12/10 07:04:22;;;;;;;10.13;5.63;;;;;;;;;;5014929;28;20504;-89
2021/12/10 07:06:49;;;;;;;14.60;4.10;;;;;;;;;;5010615;28;20488;-89
2021/12/10 07:09:21;;;;;;;8.70;5.57;;;-0.60;99.90;;;;;;5011456;28;20464;-89
2021/12/10 07:11:49;;;;;;;9.57;6.10;;;-0.60;99.90;;;;;;5014878;28;20472;-91
2021/12/10 07:14:28;;;;;;;15.73;5.07;;;;;;;;;;5014401;28;20456;-88
2021/12/10 07:16:56;;;;;;;6.70;5.40;;;-0.60;99.90;;;;;;5014385;28;20453;-91
2021/12/10 07:19:26;;;;;;;6.57;4.57;;;;;;;;;;5010726;28;20503;-91
2021/12/10 07:21:54;;;;;;;9.30;5.20;;;;;;;;;;5013743;28;20895;-88
2021/12/10 07:24:21;;;;;;;10.60;5.40;;;;;;;;;;5028791;28;20459;-90
2021/12/10 07:26:50;;;;;;;11.33;5.03;;;-0.40;99.90;;;;;;5034270;28;20499;-92
2021/12/10 07:29:17;;;;;;;7.53;5.40;;;;;;;;;;5034366;28;20455;-92
2021/12/10 07:31:46;;;;;;;9.20;5.57;;;-0.30;99.90;;;;;;5033931;28;20448;-91
2021/12/10 07:34:14;;;;;;;7.53;5.83;;;-0.30;99.90;;;;;;5029978;28;20444;-88
2021/12/10 07:36:42;;;;;;;10.70;5.63;;;-0.30;99.90;;;;;;5033391;28;20935;-92
2021/12/10 07:39:10;;;;;;;7.70;5.23;;;-0.30;99.90;;;;;;5034419;28;20459;-92
2021/12/10 07:41:40;;;;;;;9.07;4.70;;;-0.30;99.90;;;;;;5034697;28;20481;-89
2021/12/10 07:44:09;;;;;;;11.07;5.63;;;-0.30;99.90;;;;;;5034370;28;20476;-90
2021/12/10 07:46:36;;;;;;;9.50;5.20;;;;;;;;;;5035526;28;20494;-93
2021/12/10 07:49:06;;;;;;;12.43;6.13;;;-0.20;99.90;;;;;;5037740;28;20454;-89
2021/12/10 07:51:36;;;;;;;10.30;5.43;;;-0.20;99.90;;;;;;5033720;28;20944;-92
2021/12/10 07:54:03;;;;;;;9.90;5.80;;;;;;;;;;5036968;28;20518;-92
2021/12/10 07:56:32;;;;;;;5.73;4.70;;;-0.10;99.90;;;;;;5035488;28;20444;-94
2021/12/10 07:59:03;;;;;;;8.63;5.47;;;-0.10;99.90;;;;;;5013104;28;20461;-88
2021/12/10 08:01:31;;;;;;;13.57;5.60;;;-0.10;99.90;;;;;;5005497;28;20449;-89
2021/12/10 08:04:00;;;;;;;7.20;5.20;;;-0.10;99.90;;;;;;5003515;28;20511;-91
2021/12/10 08:06:29;;;;;;;4.73;3.90;;;0.00;99.90;;;;;;4992420;28;20504;-86
2021/12/10 08:08:58;;;;;;;7.30;4.23;;;0.00;99.90;;;;;;4994855;28;20454;-86
2021/12/10 08:11:26;;;;;;;6.97;4.67;;;0.10;99.90;;;;;;4997606;28;20453;-89
2021/12/10 08:13:53;;;;;;;5.57;3.70;;;;;;;;;;4998002;28;20976;-88
2021/12/10 08:16:23;;;;;;;5.30;3.80;;;;;;;;;;4996862;28;20811;-87
2021/12/10 08:18:51;;;;;;;6.07;4.33;;;0.20;99.90;;;;;;4996944;28;20511;-90
2021/12/10 08:21:18;;;;;;;4.77;3.10;;;;;;;;;;4992822;28;21000;-95
2021/12/10 08:23:45;;;;;;;3.63;2.20;;;;;;;;;;4997169;28;20458;-87
2021/12/10 08:26:15;;;;;;;5.13;4.17;;;0.40;99.90;;;;;;4997071;28;20492;-89
2021/12/10 08:28:42;;;;;;;7.53;3.80;;;;;;;;;;4997024;28;20450;-89
2021/12/10 08:31:10;;;;;;;5.50;3.30;;;0.40;99.90;;;;;;4997019;28;20458;-87
2021/12/10 08:33:37;;;;;;;6.50;4.13;;;;;;;;;;4991960;28;20449;-87
2021/12/10 08:36:08;;;;;;;6.47;3.10;;;0.60;99.90;;;;;;4993030;28;20453;-87
2021/12/10 08:38:37;;;;;;;9.17;4.23;;;0.70;99.90;;;;;;4993204;28;20530;-88
2021/12/10 08:41:08;;;;;;;7.50;4.27;;;0.80;99.90;;;;;;4993403;28;20464;-87
2021/12/10 08:43:36;;;;;;;4.70;3.07;;;0.90;99.90;;;;;;4994145;28;20469;-87
2021/12/10 08:46:05;;;;;;;1.90;1.70;;;0.90;99.90;;;;;;4997438;28;20489;-87
2021/12/10 08:48:34;;;;;;;7.00;3.80;;;0.80;99.90;;;;;;4995299;28;20862;-87
2021/12/10 08:51:04;;;;;;;3.77;2.90;;;0.80;99.90;;;;;;4997408;28;20454;-87
2021/12/10 08:53:31;;;;;;;2.77;2.23;;;;;;;;;;5010998;28;20548;-93
2021/12/10 08:55:59;;;;;;;1.70;0.80;;;0.80;99.90;;;;;;5019259;28;20468;-88
2021/12/10 08:58:27;;;;;;;3.70;2.40;;;;;;;;;;5017498;28;20457;-89
2021/12/10 09:01:00;;;;;;;1.23;1.10;;;0.80;99.90;;;;;;5017218;28;20459;-87
2021/12/10 09:03:27;;;;;;;3.10;1.80;;;;;;;;;;5015924;28;20459;-86
2021/12/10 09:05:55;;;;;;;6.63;1.47;;;;;;;;;;5014463;28;21054;-86
2021/12/10 09:08:22;;;;;;;2.93;2.17;;;;;;;;;;5015650;28;20456;-86
2021/12/10 09:10:49;;;;;;;1.67;1.13;;;;;;;;;;5015544;28;20824;-86
2021/12/10 09:13:19;;;;;;;5.30;2.07;;;;;;;;;;5016034;28;20507;-92
2021/12/10 09:15:51;;;;;;;8.27;2.20;;;0.90;99.90;;;;;;5015406;28;20467;-86
2021/12/10 09:18:20;;;;;;;2.90;1.87;;;0.90;99.90;;;;;;5015631;28;20460;-89
2021/12/10 09:20:50;;;;;;;2.60;1.87;;;1.20;99.90;;;;;;5009341;28;20472;-85
2021/12/10 09:23:21;;;;;;;2.77;1.60;;;1.10;99.90;;;;;;5012306;28;20461;-87
2021/12/10 09:25:49;;;;;;;0.83;0.80;;;;;;;;;;5015162;28;20456;-86
2021/12/10 09:28:16;;;;;;;3.23;1.43;;;;;;;;;;5015216;28;20453;-86
2021/12/10 09:30:46;;;;;;;1.43;1.33;;;0.90;99.90;;;;;;5015101;28;20459;-86
2021/12/10 09:33:14;;;;;;;2.60;1.90;;;;;;;;;;5014925;28;20960;-86
2021/12/10 09:35:47;;;;;;;3.23;1.67;;;1.10;99.90;;;;;;5014241;28;20457;-91
2021/12/10 09:38:15;;;;;;;3.20;2.03;;;1.10;99.90;;;;;;5015217;28;21006;-84
2021/12/10 09:40:45;;;;;;;2.17;1.43;;;1.20;99.90;;;;;;5015020;28;20464;-84
2021/12/10 09:43:13;;;;;;;2.80;2.40;;;1.30;99.90;;;;;;5014833;28;20468;-85
2021/12/10 09:45:41;;;;;;;3.57;2.10;;;1.30;99.90;;;;;;5011699;28;20967;-85
2021/12/10 09:48:10;;;;;;;4.03;1.90;;;1.40;99.90;;;;;;5014911;28;20500;-88
2021/12/10 09:50:40;;;;;;;2.60;1.87;;;1.40;99.90;;;;;;5013660;28;20457;-86
2021/12/10 09:53:09;;;;;;;6.10;1.20;;;1.40;99.90;;;;;;5000702;28;20442;-85
2021/12/10 09:55:37;;;;;;;1.70;1.13;;;;;;;;;;4995196;28;20442;-85
2021/12/10 09:58:05;;;;;;;2.90;1.57;;;1.40;99.90;;;;;;4995200;28;20446;-86
2021/12/10 10:00:36;;;;;;;2.93;1.53;;;1.30;99.90;;;;;;4992006;28;20450;-85
2021/12/10 10:03:03;;;;;;;0.87;0.87;;;;;;;;;;4995528;28;20926;-86
2021/12/10 10:05:32;;;;;;;1.60;1.10;;;1.40;99.90;;;;;;4989840;28;20461;-86
2021/12/10 10:08:04;;;;;;;1.50;1.37;;;1.50;99.90;;;;;;4995000;28;20485;-89
2021/12/10 10:10:33;;;;;;;2.70;1.93;;;1.40;99.90;;;;;;4994882;28;20454;-86
2021/12/10 10:13:02;;;;;;;2.20;1.17;;;1.70;99.90;;;;;;4994841;28;20453;-86
2021/12/10 10:15:33;;;;;;;2.20;1.37;;;1.70;99.90;;;;;;4992380;28;20944;-87
2021/12/10 10:18:07;;;;;;;1.40;1.30;;;1.80;99.90;;;;;;4994975;28;20450;-86
2021/12/10 10:20:38;;;;;;;2.70;1.30;;;1.80;99.90;;;;;;4993553;28;20480;-87
2021/12/10 10:23:05;;;;;;;1.33;1.23;;;;;;;;;;4994756;28;20559;-88
2021/12/10 10:25:35;;;;;;;1.43;0.90;;;1.80;99.90;;;;;;4989101;28;20954;-85
2021/12/10 10:28:05;;;;;;;1.63;1.27;;;;;;;;;;4994433;28;20580;-87
2021/12/10 10:30:36;;;;;;;3.70;2.00;;;2.00;99.90;;;;;;4990324;28;20480;-86
2021/12/10 10:33:08;;;;;;;3.20;1.33;;;2.10;99.90;;;;;;4993992;28;20462;-86
2021/12/10 10:35:39;;;;;;;2.87;1.20;;;2.10;99.90;;;;;;4990263;28;20813;-86
2021/12/10 10:38:08;;;;;;;2.63;1.13;;;2.20;99.90;;;;;;4990560;28;20457;-88
2021/12/10 10:40:42;;;;;;;2.30;1.30;;;2.20;99.90;;;;;;4992512;28;20462;-89
2021/12/10 10:43:10;;;;;;;2.10;1.23;;;2.20;99.90;;;;;;4995369;28;20474;-91
2021/12/10 10:45:42;;;;;;;5.77;1.30;;;2.20;99.90;;;;;;4996492;28;20468;-90
2021/12/10 10:48:09;;;;;;;1.70;0.83;;;;;;;;;;4996082;28;20493;-87
2021/12/10 10:50:39;;;;;;;1.13;0.80;;;2.40;99.90;;;;;;4994533;28;20512;-89
2021/12/10 10:53:09;;;;;;;3.67;1.60;;;2.40;99.90;;;;;;4990899;28;20867;-89
2021/12/10 10:55:41;;;;;;;3.10;1.50;;;2.30;99.90;;;;;;4994509;28;20454;-87
2021/12/10 10:58:11;;;;;;;2.23;1.40;;;2.40;99.90;;;;;;4991969;28;20458;-90
2021/12/10 11:00:46;;;;;;;1.63;1.30;;;2.40;99.90;;;;;;5010323;28;20449;-88
2021/12/10 11:03:20;;;;;;;2.00;1.37;;;2.50;99.90;;;;;;5013903;28;20800;-91
2021/12/10 11:05:50;;;;;;;1.53;0.97;;;2.40;99.90;;;;;;5013049;28;20944;-88
2021/12/10 11:08:28;;;;;;;1.80;1.30;;;2.50;99.90;;;;;;5013566;28;20495;-89
2021/12/10 11:11:05;;;;;;;6.80;1.20;;;2.50;99.90;;;;;;5013874;28;20460;-89
2021/12/10 11:13:32;;;;;;;2.23;1.40;;;2.50;99.90;;;;;;5014075;28;20437;-90
2021/12/10 11:16:03;;;;;;;1.13;1.00;;;2.50;99.90;;;;;;5010754;28;20441;-89
2021/12/10 11:18:46;;;;;;;2.10;1.10;;;2.40;99.90;;;;;;5012877;28;20460;-88
2021/12/10 11:21:13;;;;;;;1.40;0.73;;;;;;;;;;5000828;28;20473;-89
2021/12/10 11:23:42;;;;;;;1.00;0.83;;;2.40;99.90;;;;;;4994662;28;20461;-88
2021/12/10 11:26:11;;;;;;;1.47;0.97;;;2.10;99.90;;;;;;4994633;28;20442;-90
2021/12/10 11:28:42;;;;;;;1.30;0.90;;;2.30;99.90;;;;;;4994316;28;20485;-88
2021/12/10 11:31:11;;;;;;;0.93;0.77;;;2.30;99.90;;;;;;4994226;28;20464;-88
2021/12/10 11:33:42;;;;;;;1.60;0.53;;;2.10;99.90;;;;;;4994082;28;20457;-90
2021/12/10 11:36:12;;;;;;;1.17;0.60;;;2.00;99.90;;;;;;4994377;28;20507;-88
2021/12/10 11:38:40;;;;;;;1.07;0.63;;;1.70;99.90;;;;;;5007131;28;20442;-88
2021/12/10 11:41:09;;;;;;;2.13;0.80;;;1.40;99.90;;;;;;5010849;28;20505;-87
2021/12/10 11:43:52;;;;;;;0.83;0.77;;;1.20;99.90;;;;;;4997207;28;20449;-89
2021/12/10 11:46:44;;;;;;;0.97;0.50;;;1.00;99.90;;;;;;4997638;28;20544;-89
2021/12/10 11:49:16;;;;;;;2.00;0.60;;;0.90;99.90;;;;;;4994181;28;20991;-90
2021/12/10 11:51:46;;;;;;;6.97;3.63;;;0.90;99.90;;;;;;4998316;28;20522;-90
2021/12/10 11:54:21;;;;;;;10.00;6.67;;;1.10;99.90;;;;;;4998586;28;20813;-89
2021/12/10 11:56:50;;;;;;;4.80;2.80;;;1.00;99.90;;;;;;5006801;28;20452;-90
2021/12/10 11:59:21;;;;;;;15.73;9.27;;;1.00;99.90;;;;;;5017798;28;20453;-88
2021/12/10 12:01:55;;;;;;;33.23;15.37;;;1.00;99.90;;;;;;5006886;28;20441;-88
2021/12/10 12:04:26;;;;;;;3.13;1.87;;;1.00;99.90;;;;;;4998043;28;20449;-88
2021/12/10 12:07:20;;;;;;;11.57;5.60;;;0.90;99.90;;;;;;4999323;28;20874;-91
2021/12/10 12:09:51;;;;;;;2.47;1.70;;;0.90;99.90;;;;;;5000112;28;20441;-90
2021/12/10 12:12:22;;;;;;;2.93;1.40;;;1.10;99.90;;;;;;5000142;28;20442;-91
2021/12/10 12:14:53;;;;;;;3.83;3.40;;;1.20;99.90;;;;;;4997422;28;20467;-89
2021/12/10 12:17:31;;;;;;;11.07;9.80;;;1.30;99.90;;;;;;4994797;28;20445;-91
2021/12/10 12:19:58;;;;;;;5.00;3.30;;;;;;;;;;4997375;28;20468;-90
2021/12/10 12:25:28;;;;;;;4.90;2.90;;;1.10;99.90;;;;;;5001590;28;20510;-90
2021/12/10 12:28:10;;;;;;;3.03;2.00;;;1.30;99.90;;;;;;5000589;28;20497;-93
2021/12/10 12:30:55;;;;;;;4.73;2.40;;;1.20;99.90;;;;;;5002377;28;20454;-91
2021/12/10 12:33:27;;;;;;;3.53;1.43;;;1.30;99.90;;;;;;5002146;28;20457;-87
2021/12/10 12:35:56;;;;;;;1.53;1.43;;;1.40;99.90;;;;;;5001025;28;20454;-93
2021/12/10 12:38:27;;;;;;;3.00;1.60;;;1.40;99.90;;;;;;4994577;28;20458;-91
2021/12/10 12:41:14;;;;;;;2.00;1.43;;;1.20;99.90;;;;;;4995438;28;20505;-91
2021/12/10 12:43:43;;;;;;;2.57;1.40;;;1.40;99.90;;;;;;4995749;28;20946;-91
2021/12/10 12:46:12;;;;;;;2.33;1.53;;;1.50;99.90;;;;;;4995615;28;20450;-91
2021/12/10 12:48:54;;;;;;;3.40;1.90;;;1.50;99.90;;;;;;4990199;28;20494;-91
2021/12/10 12:51:22;;;;;;;3.10;1.70;;;;;;;;;;4918651;29;20457;-91
2021/12/10 12:53:50;;;;;;;3.10;1.60;;;1.60;99.90;;;;;;4919574;29;20558;-89
2021/12/10 12:56:19;;;;;;;2.30;1.70;;;1.50;99.90;;;;;;4917055;29;20464;-88
2021/12/10 12:58:49;;;;;;;3.13;1.33;;;1.40;99.90;;;;;;4919227;29;20826;-91
2021/12/10 13:01:21;;;;;;;2.77;1.57;;;1.40;99.90;;;;;;4916293;29;20492;-91
2021/12/10 13:03:51;;;;;;;8.03;3.43;;;1.50;99.90;;;;;;4917713;29;20918;-89
2021/12/10 13:06:22;;;;;;;57.83;24.77;;;1.50;99.90;;;;;;4919128;29;20532;-91
2021/12/10 13:09:02;;;;;;;362.73;150.00;;;1.50;99.90;;;;;;4933072;28;20488;-88
2021/12/10 13:11:33;;;;;;;33.23;15.83;;;1.50;99.90;;;;;;4997430;28;20446;-90
2021/12/10 13:14:12;;;;;;;35.17;21.77;;;1.20;99.90;;;;;;4998551;28;20481;-87
2021/12/10 13:16:46;;;;;;;45.73;36.03;;;1.40;99.90;;;;;;4998807;28;20449;-86
2021/12/10 13:19:17;;;;;;;18.37;10.23;;;1.50;99.90;;;;;;4999136;28;20460;-88
2021/12/10 13:21:46;;;;;;;19.00;13.33;;;1.30;99.90;;;;;;5014455;28;20484;-89
2021/12/10 13:24:15;;;;;;;2.60;1.67;;;1.20;99.90;;;;;;5013699;28;20818;-88
2021/12/10 13:26:46;;;;;;;6.83;2.43;;;1.40;99.90;;;;;;5015262;28;20441;-88
2021/12/10 13:29:13;;;;;;;9.37;7.10;;;;;;;;;;5015073;28;21030;-86
2021/12/10 13:31:41;;;;;;;6.90;5.53;;;1.40;99.90;;;;;;5015237;28;20449;-88
2021/12/10 13:34:10;;;;;;;3.30;2.10;;;1.40;99.90;;;;;;5010343;28;20464;-88
2021/12/10 13:36:37;;;;;;;6.00;2.50;;;;;;;;;;5014476;28;20453;-88
2021/12/10 13:39:05;;;;;;;2.77;1.30;;;1.30;99.90;;;;;;5015452;28;20456;-88
2021/12/10 13:41:33;;;;;;;4.10;1.93;;;1.20;99.90;;;;;;5015254;28;20445;-87
2021/12/10 13:44:09;;;;;;;7.30;2.60;;;1.10;99.90;;;;;;4981214;28;20503;-91